sensor_id;sensor_type;location;lat;lon;timestamp;pressure;altitude;pressure_sealevel;temperature;humidity
62031;BME280;62035;52.094;5.112;2023-03-14T00:00:07;98970.41;;;12.03;100.00
62031;BME280;62035;52.094;5.112;2023-03-14T00:02:36;98965.28;;;12.08;100.00
62031;BME280;62035;52.094;5.112;2023-03-14T00:05:07;98936.38;;;11.85;100.00
62031;BME280;62035;52.094;5.112;2023-03-14T00:07:37;98958.91;;;12.02;100.00
62031;BME280;62035;52.094;5.112;2023-03-14T00:10:08;98954.00;;;12.06;100.00
62031;BME280;62035;52.094;5.112;2023-03-14T00:12:38;98961.78;;;12.01;100.00
62031;BME280;62035;52.094;5.112;2023-03-14T00:15:07;98949.06;;;11.77;100.00
62031;BME280;62035;52.094;5.112;2023-03-14T00:17:36;98961.19;;;11.92;100.00
62031;BME280;62035;52.094;5.112;2023-03-14T00:20:07;98956.47;;;11.88;100.00
62031;BME280;62035;52.094;5.112;2023-03-14T00:22:37;98950.50;;;11.79;100.00
62031;BME280;62035;52.094;5.112;2023-03-14T00:25:07;98952.53;;;11.77;100.00
62031;BME280;62035;52.094;5.112;2023-03-14T00:27:36;98947.84;;;11.79;100.00
62031;BME280;62035;52.094;5.112;2023-03-14T00:30:05;98953.53;;;11.76;100.00
62031;BME280;62035;52.094;5.112;2023-03-14T00:32:34;98953.19;;;11.92;100.00
62031;BME280;62035;52.094;5.112;2023-03-14T00:35:03;98945.31;;;11.71;100.00
62031;BME280;62035;52.094;5.112;2023-03-14T00:37:32;98948.88;;;11.85;100.00
62031;BME280;62035;52.094;5.112;2023-03-14T00:40:00;98945.00;;;11.94;100.00
62031;BME280;62035;52.094;5.112;2023-03-14T00:42:28;98928.31;;;11.59;100.00
62031;BME280;62035;52.094;5.112;2023-03-14T00:44:55;98951.53;;;11.91;100.00
62031;BME280;62035;52.094;5.112;2023-03-14T00:47:23;98945.16;;;11.79;100.00
62031;BME280;62035;52.094;5.112;2023-03-14T00:49:51;98961.72;;;11.75;100.00
62031;BME280;62035;52.094;5.112;2023-03-14T00:52:18;98964.16;;;11.63;100.00
62031;BME280;62035;52.094;5.112;2023-03-14T00:54:47;98960.47;;;11.64;100.00
62031;BME280;62035;52.094;5.112;2023-03-14T00:57:15;98957.00;;;11.70;100.00
62031;BME280;62035;52.094;5.112;2023-03-14T00:59:42;98958.69;;;11.78;100.00
62031;BME280;62035;52.094;5.112;2023-03-14T01:02:10;98958.63;;;11.64;100.00
62031;BME280;62035;52.094;5.112;2023-03-14T01:04:38;98966.63;;;11.51;100.00
62031;BME280;62035;52.094;5.112;2023-03-14T01:07:05;98974.59;;;11.45;100.00
62031;BME280;62035;52.094;5.112;2023-03-14T01:09:33;98976.56;;;11.29;100.00
62031;BME280;62035;52.094;5.112;2023-03-14T01:12:02;98980.22;;;11.15;100.00
62031;BME280;62035;52.094;5.112;2023-03-14T01:14:29;98990.19;;;11.00;100.00
62031;BME280;62035;52.094;5.112;2023-03-14T01:16:57;98977.81;;;10.86;100.00
62031;BME280;62035;52.094;5.112;2023-03-14T01:19:26;98981.69;;;10.83;100.00
62031;BME280;62035;52.094;5.112;2023-03-14T01:21:54;98993.28;;;10.69;100.00
62031;BME280;62035;52.094;5.112;2023-03-14T01:24:22;98983.50;;;10.48;100.00
62031;BME280;62035;52.094;5.112;2023-03-14T01:26:49;99000.47;;;10.47;100.00
62031;BME280;62035;52.094;5.112;2023-03-14T01:29:18;98995.34;;;10.46;100.00
62031;BME280;62035;52.094;5.112;2023-03-14T01:31:46;99001.16;;;10.56;100.00
62031;BME280;62035;52.094;5.112;2023-03-14T01:34:13;98990.22;;;10.44;100.00
62031;BME280;62035;52.094;5.112;2023-03-14T01:36:41;98992.56;;;10.54;100.00
62031;BME280;62035;52.094;5.112;2023-03-14T01:39:09;98985.72;;;10.45;100.00
62031;BME280;62035;52.094;5.112;2023-03-14T01:41:36;98983.22;;;10.64;100.00
62031;BME280;62035;52.094;5.112;2023-03-14T01:44:04;98979.84;;;10.84;100.00
62031;BME280;62035;52.094;5.112;2023-03-14T01:46:38;98971.19;;;11.10;100.00
62031;BME280;62035;52.094;5.112;2023-03-14T01:49:12;98976.72;;;11.08;100.00
62031;BME280;62035;52.094;5.112;2023-03-14T01:51:50;98962.94;;;10.98;100.00
62031;BME280;62035;52.094;5.112;2023-03-14T01:54:27;98970.31;;;11.02;100.00
62031;BME280;62035;52.094;5.112;2023-03-14T01:57:12;98962.59;;;11.14;100.00
62031;BME280;62035;52.094;5.112;2023-03-14T01:59:47;98959.75;;;11.16;100.00
62031;BME280;62035;52.094;5.112;2023-03-14T02:02:21;98955.19;;;11.03;100.00
62031;BME280;62035;52.094;5.112;2023-03-14T02:04:51;98958.47;;;11.05;100.00
62031;BME280;62035;52.094;5.112;2023-03-14T02:07:22;98939.88;;;11.18;100.00
62031;BME280;62035;52.094;5.112;2023-03-14T02:09:56;98938.88;;;11.26;100.00
62031;BME280;62035;52.094;5.112;2023-03-14T02:12:26;98931.47;;;11.21;100.00
62031;BME280;62035;52.094;5.112;2023-03-14T02:14:55;98933.09;;;11.09;100.00
62031;BME280;62035;52.094;5.112;2023-03-14T02:17:24;98935.78;;;11.22;100.00
62031;BME280;62035;52.094;5.112;2023-03-14T02:20:09;98936.41;;;11.24;100.00
62031;BME280;62035;52.094;5.112;2023-03-14T02:22:48;98923.91;;;11.18;100.00
62031;BME280;62035;52.094;5.112;2023-03-14T02:25:21;98930.22;;;11.11;100.00
62031;BME280;62035;52.094;5.112;2023-03-14T02:27:57;98916.91;;;11.11;100.00
62031;BME280;62035;52.094;5.112;2023-03-14T02:30:27;98906.81;;;10.93;100.00
62031;BME280;62035;52.094;5.112;2023-03-14T02:32:58;98902.28;;;10.87;100.00
62031;BME280;62035;52.094;5.112;2023-03-14T02:35:33;98920.97;;;11.00;100.00
62031;BME280;62035;52.094;5.112;2023-03-14T02:38:09;98930.56;;;10.94;100.00
62031;BME280;62035;52.094;5.112;2023-03-14T02:40:42;98913.44;;;11.10;100.00
62031;BME280;62035;52.094;5.112;2023-03-14T02:43:11;98911.63;;;11.17;100.00
62031;BME280;62035;52.094;5.112;2023-03-14T02:45:42;98908.41;;;10.87;100.00
62031;BME280;62035;52.094;5.112;2023-03-14T02:48:15;98901.94;;;11.03;100.00
62031;BME280;62035;52.094;5.112;2023-03-14T02:50:47;98901.72;;;10.98;100.00
62031;BME280;62035;52.094;5.112;2023-03-14T02:53:19;98907.13;;;11.24;100.00
62031;BME280;62035;52.094;5.112;2023-03-14T02:55:50;98880.47;;;11.11;100.00
62031;BME280;62035;52.094;5.112;2023-03-14T02:58:19;98909.06;;;10.96;100.00
62031;BME280;62035;52.094;5.112;2023-03-14T03:00:48;98907.03;;;10.98;100.00
62031;BME280;62035;52.094;5.112;2023-03-14T03:03:16;98901.75;;;11.05;100.00
62031;BME280;62035;52.094;5.112;2023-03-14T03:05:48;98902.13;;;10.95;100.00
62031;BME280;62035;52.094;5.112;2023-03-14T03:08:16;98902.69;;;10.84;100.00
62031;BME280;62035;52.094;5.112;2023-03-14T03:10:43;98897.44;;;11.03;100.00
62031;BME280;62035;52.094;5.112;2023-03-14T03:13:11;98895.78;;;10.96;100.00
62031;BME280;62035;52.094;5.112;2023-03-14T03:15:40;98898.94;;;11.19;100.00
62031;BME280;62035;52.094;5.112;2023-03-14T03:18:08;98901.97;;;11.10;100.00
62031;BME280;62035;52.094;5.112;2023-03-14T03:20:37;98892.13;;;11.03;100.00
62031;BME280;62035;52.094;5.112;2023-03-14T03:23:04;98881.91;;;11.14;100.00
62031;BME280;62035;52.094;5.112;2023-03-14T03:25:32;98885.81;;;11.24;100.00
62031;BME280;62035;52.094;5.112;2023-03-14T03:28:00;98876.38;;;11.22;100.00
62031;BME280;62035;52.094;5.112;2023-03-14T03:30:28;98875.75;;;11.20;100.00
62031;BME280;62035;52.094;5.112;2023-03-14T03:32:57;98880.31;;;11.32;100.00
62031;BME280;62035;52.094;5.112;2023-03-14T03:35:24;98872.13;;;11.34;100.00
62031;BME280;62035;52.094;5.112;2023-03-14T03:37:52;98873.91;;;11.20;100.00
62031;BME280;62035;52.094;5.112;2023-03-14T03:40:19;98872.75;;;11.43;100.00
62031;BME280;62035;52.094;5.112;2023-03-14T03:42:47;98880.06;;;11.21;100.00
62031;BME280;62035;52.094;5.112;2023-03-14T03:45:15;98872.94;;;11.34;100.00
62031;BME280;62035;52.094;5.112;2023-03-14T03:47:42;98860.84;;;11.39;100.00
62031;BME280;62035;52.094;5.112;2023-03-14T03:50:11;98868.66;;;11.40;100.00
62031;BME280;62035;52.094;5.112;2023-03-14T03:52:39;98867.44;;;11.49;100.00
62031;BME280;62035;52.094;5.112;2023-03-14T03:55:08;98867.44;;;11.76;100.00
62031;BME280;62035;52.094;5.112;2023-03-14T03:57:36;98862.94;;;11.56;100.00
62031;BME280;62035;52.094;5.112;2023-03-14T04:00:05;98869.47;;;11.41;100.00
62031;BME280;62035;52.094;5.112;2023-03-14T04:02:35;98875.41;;;11.62;100.00
62031;BME280;62035;52.094;5.112;2023-03-14T04:05:02;98863.75;;;11.50;100.00
62031;BME280;62035;52.094;5.112;2023-03-14T04:07:33;98871.31;;;11.47;100.00
62031;BME280;62035;52.094;5.112;2023-03-14T04:10:00;98855.97;;;11.55;100.00
62031;BME280;62035;52.094;5.112;2023-03-14T04:12:28;98864.16;;;11.67;100.00
62031;BME280;62035;52.094;5.112;2023-03-14T04:14:55;98860.47;;;11.48;100.00
62031;BME280;62035;52.094;5.112;2023-03-14T04:17:23;98864.38;;;11.59;100.00
62031;BME280;62035;52.094;5.112;2023-03-14T04:19:50;98866.44;;;11.57;100.00
62031;BME280;62035;52.094;5.112;2023-03-14T04:22:20;98871.13;;;11.55;100.00
62031;BME280;62035;52.094;5.112;2023-03-14T04:24:49;98866.59;;;11.62;100.00
62031;BME280;62035;52.094;5.112;2023-03-14T04:27:16;98866.81;;;11.41;100.00
62031;BME280;62035;52.094;5.112;2023-03-14T04:29:44;98869.28;;;11.42;100.00
62031;BME280;62035;52.094;5.112;2023-03-14T04:32:12;98874.63;;;11.55;100.00
62031;BME280;62035;52.094;5.112;2023-03-14T04:34:39;98870.72;;;11.51;100.00
62031;BME280;62035;52.094;5.112;2023-03-14T04:37:08;98863.53;;;11.52;100.00
62031;BME280;62035;52.094;5.112;2023-03-14T04:39:35;98854.94;;;11.50;100.00
62031;BME280;62035;52.094;5.112;2023-03-14T04:42:04;98868.25;;;11.50;100.00
62031;BME280;62035;52.094;5.112;2023-03-14T04:44:32;98857.00;;;11.54;100.00
62031;BME280;62035;52.094;5.112;2023-03-14T04:47:00;98860.06;;;11.58;100.00
62031;BME280;62035;52.094;5.112;2023-03-14T04:49:28;98851.66;;;11.41;100.00
62031;BME280;62035;52.094;5.112;2023-03-14T04:51:55;98863.13;;;11.48;100.00
62031;BME280;62035;52.094;5.112;2023-03-14T04:54:23;98874.09;;;11.06;100.00
62031;BME280;62035;52.094;5.112;2023-03-14T04:56:50;98874.66;;;10.88;100.00
62031;BME280;62035;52.094;5.112;2023-03-14T04:59:19;98872.25;;;10.99;100.00
62031;BME280;62035;52.094;5.112;2023-03-14T05:01:47;98874.66;;;10.88;100.00
62031;BME280;62035;52.094;5.112;2023-03-14T05:04:15;98864.41;;;10.78;100.00
62031;BME280;62035;52.094;5.112;2023-03-14T05:06:43;98875.88;;;10.79;100.00
62031;BME280;62035;52.094;5.112;2023-03-14T05:09:10;98870.97;;;10.89;100.00
62031;BME280;62035;52.094;5.112;2023-03-14T05:11:38;98863.78;;;10.83;100.00
62031;BME280;62035;52.094;5.112;2023-03-14T05:14:06;98868.47;;;10.81;100.00
62031;BME280;62035;52.094;5.112;2023-03-14T05:16:35;98869.69;;;10.72;100.00
62031;BME280;62035;52.094;5.112;2023-03-14T05:19:02;98870.22;;;10.54;100.00
62031;BME280;62035;52.094;5.112;2023-03-14T05:21:30;98874.34;;;10.63;100.00
62031;BME280;62035;52.094;5.112;2023-03-14T05:23:58;98865.75;;;10.61;100.00
62031;BME280;62035;52.094;5.112;2023-03-14T05:26:25;98862.44;;;10.52;100.00
62031;BME280;62035;52.094;5.112;2023-03-14T05:28:53;98865.00;;;10.74;100.00
62031;BME280;62035;52.094;5.112;2023-03-14T05:31:20;98862.69;;;10.64;100.00
62031;BME280;62035;52.094;5.112;2023-03-14T05:33:50;98857.69;;;10.48;100.00
62031;BME280;62035;52.094;5.112;2023-03-14T05:36:17;98859.59;;;10.60;100.00
62031;BME280;62035;52.094;5.112;2023-03-14T05:38:45;98849.56;;;10.56;100.00
62031;BME280;62035;52.094;5.112;2023-03-14T05:41:12;98855.91;;;10.55;100.00
62031;BME280;62035;52.094;5.112;2023-03-14T05:43:40;98850.84;;;10.66;100.00
62031;BME280;62035;52.094;5.112;2023-03-14T05:46:07;98858.25;;;10.78;100.00
62031;BME280;62035;52.094;5.112;2023-03-14T05:48:35;98853.50;;;10.66;100.00
62031;BME280;62035;52.094;5.112;2023-03-14T05:51:05;98850.69;;;10.40;100.00
62031;BME280;62035;52.094;5.112;2023-03-14T05:53:33;98864.63;;;10.42;100.00
62031;BME280;62035;52.094;5.112;2023-03-14T05:56:00;98871.88;;;10.61;100.00
62031;BME280;62035;52.094;5.112;2023-03-14T05:58:28;98871.09;;;10.67;100.00
62031;BME280;62035;52.094;5.112;2023-03-14T06:00:55;98870.00;;;10.55;100.00
62031;BME280;62035;52.094;5.112;2023-03-14T06:03:23;98874.75;;;10.60;100.00
62031;BME280;62035;52.094;5.112;2023-03-14T06:05:51;98878.22;;;10.60;100.00
62031;BME280;62035;52.094;5.112;2023-03-14T06:08:20;98872.16;;;10.73;100.00
62031;BME280;62035;52.094;5.112;2023-03-14T06:10:47;98887.41;;;10.58;100.00
62031;BME280;62035;52.094;5.112;2023-03-14T06:13:15;98910.53;;;10.57;100.00
62031;BME280;62035;52.094;5.112;2023-03-14T06:15:43;98906.00;;;10.51;100.00
62031;BME280;62035;52.094;5.112;2023-03-14T06:18:10;98938.19;;;10.28;100.00
62031;BME280;62035;52.094;5.112;2023-03-14T06:20:40;98950.00;;;10.04;100.00
62031;BME280;62035;52.094;5.112;2023-03-14T06:23:08;98945.25;;;9.51;100.00
62031;BME280;62035;52.094;5.112;2023-03-14T06:25:37;98960.47;;;9.42;100.00
62031;BME280;62035;52.094;5.112;2023-03-14T06:28:05;98957.84;;;9.27;100.00
62031;BME280;62035;52.094;5.112;2023-03-14T06:30:33;98969.84;;;9.23;100.00
62031;BME280;62035;52.094;5.112;2023-03-14T06:33:00;98987.97;;;9.20;100.00
62031;BME280;62035;52.094;5.112;2023-03-14T06:35:28;99004.19;;;9.10;100.00
62031;BME280;62035;52.094;5.112;2023-03-14T06:37:56;99012.06;;;9.03;100.00
62031;BME280;62035;52.094;5.112;2023-03-14T06:40:23;99002.75;;;8.93;100.00
62031;BME280;62035;52.094;5.112;2023-03-14T06:42:52;99029.38;;;8.99;100.00
62031;BME280;62035;52.094;5.112;2023-03-14T06:45:20;99023.13;;;9.07;100.00
62031;BME280;62035;52.094;5.112;2023-03-14T06:47:47;99028.53;;;9.14;100.00
62031;BME280;62035;52.094;5.112;2023-03-14T06:50:15;99033.03;;;9.13;100.00
62031;BME280;62035;52.094;5.112;2023-03-14T06:52:43;99036.13;;;9.17;100.00
62031;BME280;62035;52.094;5.112;2023-03-14T06:55:14;99042.72;;;9.06;100.00
62031;BME280;62035;52.094;5.112;2023-03-14T06:57:42;99052.88;;;9.02;100.00
62031;BME280;62035;52.094;5.112;2023-03-14T07:00:13;99057.34;;;9.02;100.00
62031;BME280;62035;52.094;5.112;2023-03-14T07:02:41;99061.94;;;9.08;100.00
62031;BME280;62035;52.094;5.112;2023-03-14T07:05:09;99064.31;;;9.03;100.00
62031;BME280;62035;52.094;5.112;2023-03-14T07:07:37;99086.69;;;8.86;100.00
62031;BME280;62035;52.094;5.112;2023-03-14T07:10:05;99090.53;;;8.83;100.00
62031;BME280;62035;52.094;5.112;2023-03-14T07:12:34;99108.03;;;8.78;100.00
62031;BME280;62035;52.094;5.112;2023-03-14T07:15:02;99118.06;;;8.67;100.00
62031;BME280;62035;52.094;5.112;2023-03-14T07:17:31;99129.50;;;8.83;100.00
62031;BME280;62035;52.094;5.112;2023-03-14T07:19:59;99143.22;;;8.86;100.00
62031;BME280;62035;52.094;5.112;2023-03-14T07:22:26;99153.81;;;8.72;100.00
62031;BME280;62035;52.094;5.112;2023-03-14T07:24:54;99150.53;;;8.69;100.00
62031;BME280;62035;52.094;5.112;2023-03-14T07:27:22;99153.00;;;8.71;100.00
62031;BME280;62035;52.094;5.112;2023-03-14T07:29:49;99166.63;;;8.83;100.00
62031;BME280;62035;52.094;5.112;2023-03-14T07:32:17;99169.38;;;8.75;100.00
62031;BME280;62035;52.094;5.112;2023-03-14T07:34:46;99181.63;;;8.76;100.00
62031;BME280;62035;52.094;5.112;2023-03-14T07:37:13;99196.72;;;8.75;100.00
62031;BME280;62035;52.094;5.112;2023-03-14T07:39:41;99212.38;;;8.85;100.00
62031;BME280;62035;52.094;5.112;2023-03-14T07:42:08;99217.81;;;8.91;100.00
62031;BME280;62035;52.094;5.112;2023-03-14T07:44:37;99221.78;;;8.73;100.00
62031;BME280;62035;52.094;5.112;2023-03-14T07:47:04;99247.22;;;8.59;100.00
62031;BME280;62035;52.094;5.112;2023-03-14T07:49:32;99249.75;;;8.52;100.00
62031;BME280;62035;52.094;5.112;2023-03-14T07:52:01;99255.03;;;8.52;100.00
62031;BME280;62035;52.094;5.112;2023-03-14T07:54:29;99267.22;;;8.39;100.00
62031;BME280;62035;52.094;5.112;2023-03-14T07:56:56;99274.88;;;8.33;100.00
62031;BME280;62035;52.094;5.112;2023-03-14T07:59:26;99271.44;;;8.17;100.00
62031;BME280;62035;52.094;5.112;2023-03-14T08:01:54;99296.56;;;8.29;100.00
62031;BME280;62035;52.094;5.112;2023-03-14T08:04:22;99314.81;;;8.24;100.00
62031;BME280;62035;52.094;5.112;2023-03-14T08:06:49;99337.47;;;8.26;100.00
62031;BME280;62035;52.094;5.112;2023-03-14T08:09:18;99359.22;;;8.14;100.00
62031;BME280;62035;52.094;5.112;2023-03-14T08:11:46;99383.16;;;7.57;100.00
62031;BME280;62035;52.094;5.112;2023-03-14T08:14:13;99394.88;;;7.38;100.00
62031;BME280;62035;52.094;5.112;2023-03-14T08:16:41;99410.41;;;7.33;100.00
62031;BME280;62035;52.094;5.112;2023-03-14T08:19:08;99406.59;;;7.19;100.00
62031;BME280;62035;52.094;5.112;2023-03-14T08:21:36;99420.97;;;7.09;100.00
62031;BME280;62035;52.094;5.112;2023-03-14T08:24:04;99432.72;;;7.22;100.00
62031;BME280;62035;52.094;5.112;2023-03-14T08:26:33;99443.78;;;7.10;100.00
62031;BME280;62035;52.094;5.112;2023-03-14T08:29:01;99438.50;;;7.10;100.00
62031;BME280;62035;52.094;5.112;2023-03-14T08:31:30;99464.97;;;7.18;100.00
62031;BME280;62035;52.094;5.112;2023-03-14T08:33:58;99483.84;;;7.31;100.00
62031;BME280;62035;52.094;5.112;2023-03-14T08:36:26;99493.09;;;7.19;100.00
62031;BME280;62035;52.094;5.112;2023-03-14T08:38:54;99514.53;;;7.08;100.00
62031;BME280;62035;52.094;5.112;2023-03-14T08:41:21;99505.38;;;6.94;100.00
62031;BME280;62035;52.094;5.112;2023-03-14T08:43:50;99520.34;;;7.11;100.00
62031;BME280;62035;52.094;5.112;2023-03-14T08:46:18;99522.03;;;7.28;100.00
62031;BME280;62035;52.094;5.112;2023-03-14T08:48:45;99521.59;;;7.41;100.00
62031;BME280;62035;52.094;5.112;2023-03-14T08:51:13;99527.41;;;7.61;100.00
62031;BME280;62035;52.094;5.112;2023-03-14T08:53:41;99527.97;;;7.89;100.00
62031;BME280;62035;52.094;5.112;2023-03-14T08:56:09;99536.41;;;7.92;100.00
62031;BME280;62035;52.094;5.112;2023-03-14T08:58:37;99538.69;;;7.71;100.00
62031;BME280;62035;52.094;5.112;2023-03-14T09:01:08;99557.78;;;7.99;100.00
62031;BME280;62035;52.094;5.112;2023-03-14T09:03:37;99565.41;;;7.94;100.00
62031;BME280;62035;52.094;5.112;2023-03-14T09:06:07;99562.41;;;8.05;100.00
62031;BME280;62035;52.094;5.112;2023-03-14T09:08:36;99573.81;;;8.06;100.00
62031;BME280;62035;52.094;5.112;2023-03-14T09:11:06;99573.50;;;8.00;100.00
62031;BME280;62035;52.094;5.112;2023-03-14T09:13:35;99580.13;;;7.96;100.00
62031;BME280;62035;52.094;5.112;2023-03-14T09:16:03;99594.69;;;7.92;100.00
62031;BME280;62035;52.094;5.112;2023-03-14T09:18:33;99614.72;;;8.03;100.00
62031;BME280;62035;52.094;5.112;2023-03-14T09:21:01;99617.88;;;7.98;100.00
62031;BME280;62035;52.094;5.112;2023-03-14T09:23:29;99637.75;;;8.02;100.00
62031;BME280;62035;52.094;5.112;2023-03-14T09:25:57;99645.97;;;7.83;100.00
62031;BME280;62035;52.094;5.112;2023-03-14T09:28:26;99653.56;;;7.78;100.00
62031;BME280;62035;52.094;5.112;2023-03-14T09:30:54;99663.19;;;7.79;100.00
62031;BME280;62035;52.094;5.112;2023-03-14T09:33:23;99677.47;;;7.52;100.00
62031;BME280;62035;52.094;5.112;2023-03-14T09:35:51;99696.78;;;7.45;100.00
62031;BME280;62035;52.094;5.112;2023-03-14T09:38:18;99703.31;;;7.32;100.00
62031;BME280;62035;52.094;5.112;2023-03-14T09:40:46;99684.03;;;7.14;100.00
62031;BME280;62035;52.094;5.112;2023-03-14T09:43:15;99726.69;;;7.37;100.00
62031;BME280;62035;52.094;5.112;2023-03-14T09:45:45;99745.16;;;7.55;100.00
62031;BME280;62035;52.094;5.112;2023-03-14T09:48:16;99744.56;;;7.69;100.00
62031;BME280;62035;52.094;5.112;2023-03-14T09:50:51;99753.31;;;7.95;100.00
62031;BME280;62035;52.094;5.112;2023-03-14T09:53:23;99747.50;;;7.92;100.00
62031;BME280;62035;52.094;5.112;2023-03-14T09:55:57;99758.47;;;8.05;100.00
62031;BME280;62035;52.094;5.112;2023-03-14T09:58:26;99768.63;;;8.18;100.00
62031;BME280;62035;52.094;5.112;2023-03-14T10:00:56;99775.22;;;8.40;100.00
62031;BME280;62035;52.094;5.112;2023-03-14T10:03:29;99789.53;;;8.29;100.00
62031;BME280;62035;52.094;5.112;2023-03-14T10:06:00;99797.00;;;8.25;100.00
62031;BME280;62035;52.094;5.112;2023-03-14T10:08:30;99806.81;;;7.99;100.00
62031;BME280;62035;52.094;5.112;2023-03-14T10:10:57;99822.00;;;7.89;100.00
62031;BME280;62035;52.094;5.112;2023-03-14T10:13:27;99826.97;;;7.92;100.00
62031;BME280;62035;52.094;5.112;2023-03-14T10:15:59;99837.41;;;7.93;100.00
62031;BME280;62035;52.094;5.112;2023-03-14T10:18:28;99848.03;;;8.01;100.00
62031;BME280;62035;52.094;5.112;2023-03-14T10:21:06;99851.91;;;8.41;100.00
62031;BME280;62035;52.094;5.112;2023-03-14T10:23:43;99859.28;;;8.63;100.00
62031;BME280;62035;52.094;5.112;2023-03-14T10:26:13;99847.38;;;8.67;100.00
62031;BME280;62035;52.094;5.112;2023-03-14T10:28:46;99858.34;;;8.73;100.00
62031;BME280;62035;52.094;5.112;2023-03-14T10:31:15;99865.22;;;8.57;100.00
62031;BME280;62035;52.094;5.112;2023-03-14T10:33:58;99886.66;;;8.64;100.00
62031;BME280;62035;52.094;5.112;2023-03-14T10:36:29;99887.88;;;8.44;100.00
62031;BME280;62035;52.094;5.112;2023-03-14T10:39:14;99907.59;;;8.83;100.00
62031;BME280;62035;52.094;5.112;2023-03-14T10:41:52;99908.72;;;8.81;100.00
62031;BME280;62035;52.094;5.112;2023-03-14T10:44:24;99905.78;;;8.92;100.00
62031;BME280;62035;52.094;5.112;2023-03-14T10:46:56;99934.66;;;8.53;100.00
62031;BME280;62035;52.094;5.112;2023-03-14T10:49:29;99968.59;;;7.97;100.00
62031;BME280;62035;52.094;5.112;2023-03-14T10:52:12;99987.78;;;7.28;100.00
62031;BME280;62035;52.094;5.112;2023-03-14T10:54:46;99995.31;;;6.78;100.00
62031;BME280;62035;52.094;5.112;2023-03-14T10:57:14;100008.75;;;6.85;100.00
62031;BME280;62035;52.094;5.112;2023-03-14T10:59:42;100017.72;;;7.11;100.00
62031;BME280;62035;52.094;5.112;2023-03-14T11:02:26;100025.19;;;7.43;100.00
62031;BME280;62035;52.094;5.112;2023-03-14T11:05:18;100026.13;;;7.87;100.00
62031;BME280;62035;52.094;5.112;2023-03-14T11:08:00;100019.59;;;7.99;100.00
62031;BME280;62035;52.094;5.112;2023-03-14T11:10:32;100038.31;;;7.98;100.00
62031;BME280;62035;52.094;5.112;2023-03-14T11:13:11;100057.97;;;7.95;100.00
62031;BME280;62035;52.094;5.112;2023-03-14T11:15:57;100051.03;;;7.94;100.00
62031;BME280;62035;52.094;5.112;2023-03-14T11:21:44;100049.41;;;8.63;100.00
62031;BME280;62035;52.094;5.112;2023-03-14T11:24:35;100070.72;;;8.53;100.00
62031;BME280;62035;52.094;5.112;2023-03-14T11:27:17;100068.91;;;9.06;100.00
62031;BME280;62035;52.094;5.112;2023-03-14T11:29:54;100084.41;;;9.26;100.00
62031;BME280;62035;52.094;5.112;2023-03-14T11:32:35;100086.00;;;8.85;100.00
62031;BME280;62035;52.094;5.112;2023-03-14T11:35:17;100096.53;;;8.69;100.00
62031;BME280;62035;52.094;5.112;2023-03-14T11:37:54;100104.59;;;8.59;100.00
62031;BME280;62035;52.094;5.112;2023-03-14T11:40:32;100112.59;;;9.19;100.00
62031;BME280;62035;52.094;5.112;2023-03-14T11:43:06;100104.84;;;9.76;100.00
62031;BME280;62035;52.094;5.112;2023-03-14T11:45:41;100082.19;;;9.48;100.00
62031;BME280;62035;52.094;5.112;2023-03-14T11:48:17;100110.41;;;9.49;100.00
62031;BME280;62035;52.094;5.112;2023-03-14T11:50:53;100122.03;;;9.48;100.00
62031;BME280;62035;52.094;5.112;2023-03-14T11:53:36;100127.69;;;9.53;100.00
62031;BME280;62035;52.094;5.112;2023-03-14T11:56:18;100142.47;;;9.55;100.00
62031;BME280;62035;52.094;5.112;2023-03-14T11:58:55;100146.63;;;9.24;100.00
62031;BME280;62035;52.094;5.112;2023-03-14T12:01:39;100162.94;;;9.71;100.00
62031;BME280;62035;52.094;5.112;2023-03-14T12:04:20;100160.50;;;9.86;100.00
62031;BME280;62035;52.094;5.112;2023-03-14T12:07:02;100166.69;;;10.02;100.00
62031;BME280;62035;52.094;5.112;2023-03-14T12:09:36;100167.81;;;9.84;100.00
62031;BME280;62035;52.094;5.112;2023-03-14T12:12:06;100178.34;;;10.10;100.00
62031;BME280;62035;52.094;5.112;2023-03-14T12:14:45;100187.31;;;10.09;100.00
62031;BME280;62035;52.094;5.112;2023-03-14T12:17:20;100185.66;;;10.08;100.00
62031;BME280;62035;52.094;5.112;2023-03-14T12:20:00;100192.44;;;10.02;100.00
62031;BME280;62035;52.094;5.112;2023-03-14T12:22:34;100209.16;;;9.44;97.42
62031;BME280;62035;52.094;5.112;2023-03-14T12:25:18;100203.84;;;9.18;100.00
62031;BME280;62035;52.094;5.112;2023-03-14T12:28:19;100211.22;;;9.32;100.00
62031;BME280;62035;52.094;5.112;2023-03-14T12:30:48;100217.75;;;9.12;97.26
62031;BME280;62035;52.094;5.112;2023-03-14T12:33:31;100246.63;;;9.41;100.00
62031;BME280;62035;52.094;5.112;2023-03-14T12:36:19;100227.22;;;9.41;100.00
62031;BME280;62035;52.094;5.112;2023-03-14T12:39:21;100221.13;;;9.48;97.99
62031;BME280;62035;52.094;5.112;2023-03-14T12:42:02;100228.47;;;9.54;98.98
62031;BME280;62035;52.094;5.112;2023-03-14T12:44:47;100231.91;;;9.81;93.46
62031;BME280;62035;52.094;5.112;2023-03-14T12:50:39;100246.63;;;9.15;86.67
62031;BME280;62035;52.094;5.112;2023-03-14T12:56:50;100262.72;;;9.14;93.77
62031;BME280;62035;52.094;5.112;2023-03-14T12:59:30;100295.22;;;9.33;89.18
62031;BME280;62035;52.094;5.112;2023-03-14T13:05:10;100293.50;;;9.50;85.29
62031;BME280;62035;52.094;5.112;2023-03-14T13:08:03;100303.69;;;9.37;81.14
62031;BME280;62035;52.094;5.112;2023-03-14T13:10:42;100309.94;;;9.28;80.16
62031;BME280;62035;52.094;5.112;2023-03-14T13:13:19;100312.16;;;9.15;85.35
62031;BME280;62035;52.094;5.112;2023-03-14T13:15:49;100322.78;;;8.97;82.97
62031;BME280;62035;52.094;5.112;2023-03-14T13:18:27;100325.50;;;8.69;83.81
62031;BME280;62035;52.094;5.112;2023-03-14T13:21:00;100332.47;;;8.71;92.27
62031;BME280;62035;52.094;5.112;2023-03-14T13:23:32;100353.50;;;8.54;94.94
62031;BME280;62035;52.094;5.112;2023-03-14T13:26:02;100348.75;;;8.58;92.40